METAR Data
IDs: Format: Raw Decoded Include TAF

Data at: 1915 UTC 26 Sep 2021

EGAE 261850Z 24005KT 9999 FEW006 11/11 Q1001